createdAt,value
2019-04-03T05:49:37.345Z,15.67
2019-04-03T05:52:06.201Z,17.17
2019-04-03T05:54:39.327Z,15.57
2019-04-03T05:57:07.784Z,15.70
2019-04-03T05:59:36.612Z,16.77
2019-04-03T06:02:14.665Z,15.73
2019-04-03T06:04:36.006Z,15.87
2019-04-03T06:07:04.940Z,15.97
2019-04-03T06:09:33.829Z,16.63
2019-04-03T06:12:02.775Z,18.53
2019-04-03T06:14:31.617Z,15.80
2019-04-03T06:17:00.468Z,16.40
2019-04-03T06:19:29.346Z,17.87
2019-04-03T06:21:58.167Z,15.83
2019-04-03T06:24:26.992Z,18.10
2019-04-03T06:26:55.904Z,16.23
2019-04-03T06:29:24.727Z,17.00
2019-04-03T06:31:53.577Z,15.30
2019-04-03T06:34:22.575Z,17.57
2019-04-03T06:36:51.633Z,16.33
2019-04-03T06:39:22.871Z,17.13
2019-04-03T06:41:51.154Z,18.07
2019-04-03T06:44:22.689Z,16.73
2019-04-03T06:46:54.050Z,15.73
2019-04-03T06:49:22.319Z,17.37
2019-04-03T06:51:51.294Z,16.17
2019-04-03T06:54:20.267Z,15.60
2019-04-03T06:56:51.922Z,18.20
2019-04-03T06:59:19.577Z,17.00
2019-04-03T07:01:48.465Z,16.57
2019-04-03T07:04:17.228Z,16.80
2019-04-03T07:06:46.060Z,17.47
2019-04-03T07:09:22.702Z,16.30
2019-04-03T07:11:45.430Z,20.50
2019-04-03T07:14:14.255Z,17.83
2019-04-03T07:16:43.374Z,20.20
2019-04-03T07:19:12.230Z,17.57
2019-04-03T07:21:41.142Z,17.80
2019-04-03T07:24:09.991Z,18.43
2019-04-03T07:26:38.797Z,18.57
2019-04-03T07:29:07.620Z,18.30
2019-04-03T07:31:36.359Z,19.33
2019-04-03T07:34:05.180Z,18.80
2019-04-03T07:36:34.312Z,19.00
2019-04-03T07:39:04.219Z,19.37
2019-04-03T07:41:33.170Z,18.93
2019-04-03T07:44:02.274Z,18.50
2019-04-03T07:46:32.876Z,18.33
2019-04-03T07:49:01.656Z,19.37
2019-04-03T07:51:30.599Z,21.20
2019-04-03T07:53:59.552Z,20.73
2019-04-03T07:56:28.396Z,20.67
2019-04-03T07:58:57.153Z,20.77
2019-04-03T08:01:26.034Z,20.10
2019-04-03T08:03:55.301Z,20.90
2019-04-03T08:09:07.650Z,21.30
2019-04-03T08:11:32.641Z,20.93
2019-04-03T08:14:01.439Z,19.87
2019-04-03T08:16:30.324Z,22.10
2019-04-03T08:18:59.459Z,21.20
2019-04-03T08:21:30.527Z,21.13
2019-04-03T08:23:58.883Z,20.83
2019-04-03T08:29:05.827Z,20.17
2019-04-03T08:31:34.667Z,21.17
2019-04-03T08:34:14.820Z,19.40
2019-04-03T08:42:05.716Z,20.63
2019-04-03T08:44:35.716Z,21.03
2019-04-03T08:47:04.977Z,20.77
2019-04-03T08:49:33.763Z,22.37
2019-04-03T08:52:03.882Z,22.23
2019-04-03T08:54:33.415Z,21.83
2019-04-03T08:57:02.335Z,22.53
2019-04-03T08:59:31.175Z,22.90
2019-04-03T09:02:00.060Z,21.87
2019-04-03T09:04:29.312Z,21.20
2019-04-03T09:06:58.232Z,21.03
2019-04-03T09:09:29.848Z,21.37
2019-04-03T09:11:57.978Z,23.37
2019-04-03T09:14:26.771Z,22.60
2019-04-03T09:16:55.576Z,22.43
2019-04-03T09:19:24.788Z,23.10
2019-04-03T09:21:53.685Z,21.83
2019-04-03T09:24:22.748Z,22.30
2019-04-03T09:26:51.571Z,22.20
2019-04-03T09:29:20.461Z,20.40
2019-04-03T09:31:51.419Z,21.63
2019-04-03T09:34:20.417Z,21.60
2019-04-03T09:36:49.855Z,20.13
2019-04-03T09:39:19.109Z,19.57
2019-04-03T09:41:48.872Z,18.50
2019-04-03T09:44:21.155Z,17.63
2019-04-03T09:46:51.243Z,18.57
2019-04-03T09:49:20.268Z,20.87
2019-04-03T09:51:49.976Z,19.77
2019-04-03T09:54:20.747Z,19.40
2019-04-03T09:56:58.999Z,21.03
2019-04-03T09:59:20.214Z,21.00
2019-04-03T10:01:49.368Z,18.67
2019-04-03T10:04:21.479Z,19.00
2019-04-03T10:06:50.714Z,19.07
2019-04-03T10:09:19.854Z,18.67
2019-04-03T10:11:52.153Z,15.90
2019-04-03T10:14:21.707Z,18.03
2019-04-03T10:16:50.769Z,17.53
2019-04-03T10:19:19.584Z,18.00
2019-04-03T10:21:50.059Z,19.07
2019-04-03T10:24:18.981Z,17.70
2019-04-03T10:26:48.051Z,16.43
2019-04-03T10:29:17.063Z,15.13
2019-04-03T10:31:47.543Z,14.13
2019-04-03T10:34:16.442Z,15.17
2019-04-03T10:36:45.368Z,13.37
2019-04-03T10:39:15.222Z,15.23
2019-04-03T10:41:44.072Z,13.97
2019-04-03T10:44:12.898Z,13.50
2019-04-03T10:46:41.739Z,14.93
2019-04-03T10:49:10.649Z,14.27
2019-04-03T10:51:41.544Z,13.60
2019-04-03T10:54:10.081Z,13.50
2019-04-03T10:56:39.060Z,13.70
2019-04-03T10:59:12.189Z,13.67
2019-04-03T11:01:38.298Z,13.13
2019-04-03T11:04:07.213Z,12.77
2019-04-03T11:06:37.513Z,11.13
2019-04-03T11:09:10.226Z,11.83
2019-04-03T11:11:39.122Z,11.87
2019-04-03T11:14:08.186Z,12.67
2019-04-03T11:16:38.676Z,12.87
2019-04-03T11:19:08.007Z,12.43
2019-04-03T11:21:36.897Z,12.10
2019-04-03T11:24:06.680Z,12.03
2019-04-03T11:26:36.134Z,11.63
2019-04-03T11:29:05.190Z,10.90
2019-04-03T11:31:40.977Z,10.90
2019-04-03T11:34:04.897Z,10.73
2019-04-03T11:36:33.843Z,10.63
2019-04-03T11:39:12.351Z,10.17
2019-04-03T11:41:35.076Z,8.50
2019-04-03T11:44:04.018Z,9.17
2019-04-03T11:46:33.105Z,9.27
2019-04-03T11:49:02.316Z,9.13
2019-04-03T11:51:33.655Z,9.10
2019-04-03T11:54:01.698Z,9.23
2019-04-03T11:56:30.719Z,9.00
2019-04-03T11:58:59.708Z,8.83
2019-04-03T12:01:28.823Z,8.90
2019-04-03T12:03:58.385Z,9.50
2019-04-03T12:06:27.399Z,9.70
2019-04-03T12:09:01.336Z,8.50
2019-04-03T12:11:29.380Z,9.20
2019-04-03T12:13:58.252Z,9.27
2019-04-03T12:16:27.097Z,11.07
2019-04-03T12:18:56.147Z,10.27
2019-04-03T12:21:25.782Z,8.87
2019-04-03T12:23:57.785Z,8.87
2019-04-03T12:26:25.376Z,8.20
2019-04-03T12:28:54.203Z,7.70
2019-04-03T12:31:22.955Z,8.53
2019-04-03T12:33:58.256Z,8.07
2019-04-03T12:36:22.403Z,7.97
2019-04-03T12:38:54.611Z,8.57
2019-04-03T12:41:22.386Z,7.50
2019-04-03T12:43:51.303Z,8.20
2019-04-03T12:46:36.372Z,7.90
2019-04-03T12:49:07.856Z,8.43
2019-04-03T12:51:36.782Z,8.07
2019-04-03T12:54:05.699Z,8.07
2019-04-03T12:56:34.924Z,8.20
2019-04-03T12:59:03.927Z,8.30
2019-04-03T13:01:33.169Z,8.60
2019-04-03T13:04:01.978Z,7.80
2019-04-03T13:06:30.907Z,8.80
2019-04-03T13:09:02.990Z,8.87
2019-04-03T13:11:33.561Z,9.83
2019-04-03T13:14:02.672Z,9.77
2019-04-03T13:16:31.587Z,9.27
2019-04-03T13:19:00.552Z,8.13
2019-04-03T13:21:32.870Z,8.30
2019-04-03T13:24:01.315Z,8.43
2019-04-03T13:26:30.592Z,9.07
2019-04-03T13:28:59.362Z,10.80
2019-04-03T13:31:31.011Z,12.20
2019-04-03T13:34:00.160Z,11.53
2019-04-03T13:36:28.984Z,11.63
2019-04-03T13:39:00.314Z,11.53
2019-04-03T13:41:28.356Z,10.97
2019-04-03T13:43:57.330Z,10.37
2019-04-03T13:46:26.649Z,10.10
2019-04-03T13:48:55.440Z,11.33
2019-04-03T13:51:26.699Z,10.90
2019-04-03T13:53:55.165Z,10.80
2019-04-03T13:56:24.647Z,9.80
2019-04-03T13:58:54.766Z,10.27
2019-04-03T14:01:23.756Z,10.37
2019-04-03T14:03:52.569Z,9.87
2019-04-03T14:06:21.867Z,10.90
2019-04-03T14:08:50.712Z,10.53
2019-04-03T14:11:19.746Z,10.07
2019-04-03T14:13:48.495Z,10.40
2019-04-03T14:16:21.588Z,9.53
2019-04-03T14:18:49.922Z,10.03
2019-04-03T14:21:18.856Z,10.53
2019-04-03T14:23:48.627Z,10.77
2019-04-03T14:26:17.632Z,12.53
2019-04-03T14:28:46.476Z,11.57
2019-04-03T14:31:17.002Z,10.77
2019-04-03T14:33:47.023Z,10.73
2019-04-03T14:36:18.382Z,10.97
2019-04-03T14:38:46.978Z,11.67
2019-04-03T14:41:18.620Z,12.43
2019-04-03T14:43:46.195Z,12.30
2019-04-03T14:46:17.310Z,12.30
2019-04-03T14:48:45.853Z,12.73
2019-04-03T14:51:14.981Z,12.07
2019-04-03T14:53:43.879Z,11.80
2019-04-03T14:56:12.768Z,11.97
2019-04-03T14:58:41.626Z,11.80
2019-04-03T15:01:10.828Z,11.53
2019-04-03T15:03:39.653Z,12.90
2019-04-03T15:06:08.587Z,14.33
2019-04-03T15:08:37.917Z,14.33
2019-04-03T15:11:07.144Z,14.00
2019-04-03T15:13:35.945Z,14.33
2019-04-03T15:16:05.232Z,13.50
2019-04-03T15:18:34.944Z,13.60
2019-04-03T15:21:04.189Z,12.97
2019-04-03T15:23:35.788Z,12.80
2019-04-03T15:26:03.601Z,12.80
2019-04-03T15:28:32.454Z,12.50
2019-04-03T15:31:01.298Z,12.67
2019-04-03T15:33:30.748Z,12.97
2019-04-03T15:36:00.277Z,12.23
2019-04-03T15:38:29.132Z,12.57
2019-04-03T15:40:59.331Z,12.47
2019-04-03T15:43:28.570Z,12.03
2019-04-03T15:45:58.078Z,11.90
2019-04-03T15:48:27.522Z,12.10
2019-04-03T15:50:56.638Z,12.33
2019-04-03T15:53:25.870Z,12.80
2019-04-03T15:55:54.875Z,13.20
2019-04-03T15:58:25.730Z,12.27
2019-04-03T16:00:54.754Z,12.17
2019-04-03T16:03:23.942Z,12.43
2019-04-03T16:05:53.086Z,12.43
2019-04-03T16:08:22.058Z,12.93
2019-04-03T16:10:50.825Z,12.37
2019-04-03T16:13:21.321Z,12.50
2019-04-03T16:15:50.157Z,13.03
2019-04-03T16:18:20.746Z,12.57
2019-04-03T16:20:50.341Z,12.40
2019-04-03T16:23:19.653Z,13.03
2019-04-03T16:25:49.262Z,13.30
2019-04-03T16:28:18.620Z,14.30
2019-04-03T16:30:51.837Z,12.70
2019-04-03T16:33:21.832Z,13.80
2019-04-03T16:35:48.613Z,14.23
2019-04-03T16:38:17.770Z,14.63
2019-04-03T16:40:47.335Z,14.30
2019-04-03T16:43:16.310Z,15.10
2019-04-03T16:45:45.378Z,15.03
2019-04-03T16:48:16.876Z,15.37
2019-04-03T16:50:45.078Z,15.37
2019-04-03T16:53:14.198Z,14.77
2019-04-03T16:55:44.741Z,14.97
2019-04-03T16:58:14.843Z,14.47
2019-04-03T17:00:43.717Z,14.30
2019-04-03T17:03:13.399Z,13.80
2019-04-03T17:05:43.732Z,14.50
2019-04-03T17:08:12.840Z,14.93
2019-04-03T17:10:42.372Z,14.13
2019-04-03T17:13:11.326Z,14.27
2019-04-03T17:15:40.167Z,13.57
2019-04-03T17:18:10.754Z,13.67
2019-04-03T17:20:39.514Z,13.60
2019-04-03T17:23:10.945Z,13.20
2019-04-03T17:25:48.236Z,13.50
2019-04-03T17:28:10.360Z,14.47
2019-04-03T17:30:39.448Z,14.00
2019-04-03T17:33:08.503Z,14.27
2019-04-03T17:35:37.712Z,15.10
2019-04-03T17:38:06.637Z,14.50
2019-04-03T17:40:36.587Z,14.57
2019-04-03T17:43:05.974Z,14.47
2019-04-03T17:45:34.720Z,13.90
2019-04-03T17:48:03.622Z,15.23
2019-04-03T17:50:32.506Z,14.77
2019-04-03T17:53:01.482Z,14.63
2019-04-03T17:55:30.324Z,13.97
2019-04-03T17:57:59.211Z,15.83
2019-04-03T18:00:28.199Z,14.73
2019-04-03T18:02:56.967Z,14.80
2019-04-03T18:05:26.223Z,14.23
2019-04-03T18:07:55.114Z,14.27
2019-04-03T18:10:23.950Z,14.27
2019-04-03T18:12:52.925Z,14.37
2019-04-03T18:15:21.710Z,13.90
2019-04-03T18:17:50.457Z,14.37
2019-04-03T18:20:19.344Z,14.03
2019-04-03T18:22:50.437Z,15.40
2019-04-03T18:25:18.673Z,15.03
2019-04-03T18:27:48.836Z,15.37
2019-04-03T18:30:18.305Z,14.87
2019-04-03T18:32:48.097Z,16.20
2019-04-03T18:35:18.291Z,15.00
2019-04-03T18:37:47.129Z,15.30
2019-04-03T18:40:16.202Z,16.33
2019-04-03T18:42:44.970Z,15.07
2019-04-03T18:45:24.690Z,16.07
2019-04-03T18:47:46.481Z,16.20
2019-04-03T18:50:15.400Z,16.27
2019-04-03T18:52:44.274Z,17.20
2019-04-03T18:55:14.547Z,17.40
2019-04-03T18:57:43.628Z,15.50
2019-04-03T19:00:12.639Z,15.97
2019-04-03T19:02:41.991Z,16.70
2019-04-03T19:05:13.769Z,16.97
2019-04-03T19:07:41.471Z,16.53
2019-04-03T19:10:12.088Z,19.80
2019-04-03T19:12:43.095Z,17.43
2019-04-03T19:15:12.538Z,18.43
2019-04-03T19:17:41.322Z,17.47
2019-04-03T19:20:11.346Z,18.27
2019-04-03T19:22:44.758Z,18.77
2019-04-03T19:25:13.247Z,19.00
2019-04-03T19:27:42.548Z,18.23
2019-04-03T19:30:11.545Z,18.50
2019-04-03T19:32:44.030Z,17.83
2019-04-03T19:35:14.443Z,19.23
2019-04-03T19:37:45.015Z,18.67
2019-04-03T19:40:14.204Z,19.90
2019-04-03T19:42:43.776Z,19.80
2019-04-03T19:45:13.518Z,19.90
2019-04-03T19:47:43.232Z,20.17
2019-04-03T19:50:12.147Z,20.70
2019-04-03T19:52:42.752Z,20.20
2019-04-03T19:55:14.684Z,20.30
2019-04-03T19:57:43.554Z,20.23
2019-04-03T20:00:13.233Z,19.97
2019-04-03T20:02:57.241Z,20.47
2019-04-03T20:05:26.035Z,21.27
2019-04-03T20:07:54.919Z,21.00
2019-04-03T20:10:23.769Z,21.40
2019-04-03T20:12:52.624Z,22.70
2019-04-03T20:15:22.854Z,22.47
2019-04-03T20:17:54.528Z,21.27
2019-04-03T20:20:22.553Z,22.07
2019-04-03T20:22:51.531Z,23.80
2019-04-03T20:25:20.399Z,22.33
2019-04-03T20:27:51.455Z,24.83
2019-04-03T20:30:19.883Z,22.50
2019-04-03T20:32:48.711Z,22.50
2019-04-03T20:35:18.724Z,23.57
2019-04-03T20:37:47.723Z,21.83
2019-04-03T20:40:16.732Z,24.97
2019-04-03T20:42:45.566Z,22.43
2019-04-03T20:45:14.614Z,22.80
2019-04-03T20:47:43.457Z,22.57
2019-04-03T20:50:12.481Z,22.30
2019-04-03T20:52:41.316Z,21.93
2019-04-03T20:55:10.207Z,21.70
2019-04-03T20:57:39.245Z,21.90
2019-04-03T21:00:12.134Z,22.30
2019-04-03T21:02:42.140Z,21.07
2019-04-03T21:05:11.228Z,23.33
2019-04-03T21:07:39.967Z,22.80
2019-04-03T21:10:09.079Z,21.60
2019-04-03T21:12:39.196Z,21.67
2019-04-03T21:15:09.456Z,20.50
2019-04-03T21:17:38.350Z,22.93
2019-04-03T21:20:07.362Z,24.80
2019-04-03T21:22:36.316Z,23.37
2019-04-03T21:25:06.070Z,22.07
2019-04-03T21:27:40.603Z,23.07
2019-04-03T21:30:09.925Z,23.73
2019-04-03T21:32:38.949Z,25.53
2019-04-03T21:35:07.922Z,22.07
2019-04-03T21:37:39.701Z,23.07
2019-04-03T21:40:07.606Z,23.90
2019-04-03T21:42:36.437Z,21.90
2019-04-03T21:45:07.591Z,22.03
2019-04-03T21:47:36.318Z,23.63
2019-04-03T21:50:07.892Z,21.97
2019-04-03T21:52:36.858Z,21.90
2019-04-03T21:55:06.885Z,21.83
2019-04-03T21:57:38.536Z,23.50
2019-04-03T22:00:08.310Z,21.47
2019-04-03T22:02:38.397Z,22.03
2019-04-03T22:05:07.796Z,22.43
2019-04-03T22:07:36.687Z,21.40
2019-04-03T22:10:09.405Z,22.03
2019-04-03T22:12:39.364Z,21.37
2019-04-03T22:15:08.592Z,25.90
2019-04-03T22:17:37.324Z,21.73
2019-04-03T22:20:06.315Z,23.17
2019-04-03T22:22:35.115Z,21.47
2019-04-03T22:25:03.951Z,23.70
2019-04-03T22:27:32.753Z,22.40
2019-04-03T22:30:01.562Z,22.20
2019-04-03T22:32:30.315Z,24.60
2019-04-03T22:35:01.010Z,21.90
2019-04-03T22:37:29.733Z,23.80
2019-04-03T22:39:58.555Z,24.63
2019-04-03T22:42:27.393Z,24.07
2019-04-03T22:44:56.135Z,23.33
2019-04-03T22:47:25.640Z,24.10
2019-04-03T22:49:54.462Z,22.40
2019-04-03T22:52:23.262Z,22.63
2019-04-03T22:54:52.142Z,22.63
2019-04-03T22:57:20.972Z,22.60
2019-04-03T22:59:49.913Z,22.03
2019-04-03T23:02:18.811Z,21.83
2019-04-03T23:04:47.771Z,22.60
2019-04-03T23:07:16.616Z,23.33
2019-04-03T23:09:45.579Z,22.27
2019-04-03T23:12:14.439Z,25.07
2019-04-03T23:14:43.485Z,24.80
2019-04-03T23:17:14.024Z,24.53
2019-04-03T23:19:42.862Z,25.17
2019-04-03T23:22:11.839Z,26.00
2019-04-03T23:24:40.621Z,25.57
2019-04-03T23:27:09.596Z,25.40
2019-04-03T23:29:38.382Z,25.77
2019-04-03T23:32:07.298Z,25.10
2019-04-03T23:34:36.291Z,26.03
2019-04-03T23:37:05.186Z,25.97
2019-04-03T23:39:35.070Z,25.40
2019-04-03T23:42:06.591Z,25.37
2019-04-03T23:44:34.505Z,24.17
2019-04-03T23:47:03.365Z,24.00
2019-04-03T23:49:32.219Z,25.10
2019-04-03T23:52:01.299Z,24.30
2019-04-03T23:54:30.067Z,26.10
2019-04-03T23:56:58.849Z,23.70
2019-04-03T23:59:27.766Z,22.80
